M I D A S
Marine Information and Data Acquisition System
Tripno 1356 of the Zeeleeuw from 2007-09-25 06:39:14 to 2007-09-25 15:25:09
Back to CruiseResearch ActivitiesStationsMapUnderway DataData graphs

EquipmentUnitsComment
TimeDGPSUTC
LatitudeDGPSDM.mWGS84
LongitudeDGPSDM.mWGS84
HeadingGyrodeg 
SOGDGPSknotsSpeed over ground
COGDGPSdegCourse over ground
DepthEcho soundermeters200 kHz
Missing or incorrect values are displayed as -999
Navigation data collected by the RV Zeeleeuw from 2007-09-25 06:26:18 to 2007-09-25 15:38:00
Time Latitude Longitude Heading SOG COG Depth
2007-09-25 06:27:24 51°13.618 2°56.054 116.8 2.9 297 -999
2007-09-25 06:28:24 51°13.652 2°55.956 124 5.3 303 -999
2007-09-25 06:29:24 51°13.696 2°55.844 116.2 4.4 297 -999
2007-09-25 06:30:24 51°13.712 2°55.746 90.7 3.4 273 13.4
2007-09-25 06:31:22 51°13.714 2°55.702 63 0.4 327 11.4
2007-09-25 06:32:20 51°13.736 2°55.705 4.9 3.5 351 11
2007-09-25 06:33:20 51°13.822 2°55.646 337.5 6.8 335 10.6
2007-09-25 06:34:20 51°13.932 2°55.561 337 7.6 334 10.7
2007-09-25 06:35:20 51°14.048 2°55.476 338.9 7.7 335 10.4
2007-09-25 06:36:22 51°14.165 2°55.381 334.4 7.4 330 -999
2007-09-25 06:37:22 51°14.257 2°55.265 319.6 7.3 315 10.1
2007-09-25 06:38:20 51°14.343 2°55.113 313.5 8.3 310 10.3
2007-09-25 06:39:20 51°14.451 2°54.912 319.9 11.4 314 10.2
2007-09-25 06:40:21 51°14.625 2°54.762 349.5 11.9 341 8.9
2007-09-25 06:41:21 51°14.81 2°54.645 345.9 12 338 9.3
2007-09-25 06:42:21 51°14.993 2°54.533 345.8 11.6 336 8.3
2007-09-25 06:43:21 51°15.169 2°54.406 344.1 11.7 336 8.4
2007-09-25 06:44:21 51°15.345 2°54.269 343.6 11.8 334 9
2007-09-25 06:45:21 51°15.524 2°54.139 346.1 11.9 336 9.6
2007-09-25 06:46:21 51°15.704 2°54.008 345.9 11.9 337 10.3
2007-09-25 06:47:21 51°15.885 2°53.878 345.2 11.9 334 10.8
2007-09-25 06:48:21 51°16.025 2°53.93 58.7 8.7 57 10.9
2007-09-25 06:49:21 51°16.13 2°54.092 44.7 9.2 44 10.9
2007-09-25 06:50:21 51°16.232 2°54.245 37.3 6.5 27 10.9
2007-09-25 06:51:21 51°16.281 2°54.292 32.4 0.9 1 11.2
2007-09-25 06:52:21 51°16.289 2°54.279 2.3 0.7 306 11.1
2007-09-25 06:53:21 51°16.295 2°54.259 350.2 0.8 282 11.1
2007-09-25 06:54:21 51°16.297 2°54.239 338.7 0.8 266 11.2
2007-09-25 06:55:21 51°16.294 2°54.22 330.9 0.8 248 11.2
2007-09-25 06:56:21 51°16.304 2°54.187 327.2 3.1 305 11.3
2007-09-25 06:57:21 51°16.386 2°54.053 329.5 10.5 319 11.1
2007-09-25 06:58:21 51°16.523 2°53.826 321.3 12.3 312 11.3
2007-09-25 06:59:21 51°16.661 2°53.586 322.2 12.2 312 11.1
2007-09-25 07:00:21 51°16.797 2°53.348 321.6 12 313 10.9
2007-09-25 07:01:21 51°16.929 2°53.112 321.5 11.7 313 8.1
2007-09-25 07:02:21 51°17.061 2°52.882 321.6 11.7 313 9
2007-09-25 07:03:21 51°17.197 2°52.65 322.8 11.8 313 9.6
2007-09-25 07:04:21 51°17.331 2°52.417 321.8 12.1 312 10.2
2007-09-25 07:05:21 51°17.465 2°52.181 322.1 11.9 313 10.2
2007-09-25 07:06:21 51°17.601 2°51.947 322.5 11.9 313 10.5
2007-09-25 07:07:21 51°17.736 2°51.715 322.2 11.9 312 10
2007-09-25 07:08:21 51°17.874 2°51.485 324.2 11.8 314 10.4
2007-09-25 07:09:21 51°18.014 2°51.258 325 12.2 316 11.1
2007-09-25 07:10:21 51°18.159 2°51.039 326.1 12.1 315 12.6
2007-09-25 07:11:21 51°18.302 2°50.824 326.1 11.8 318 12.7
2007-09-25 07:12:21 51°18.43 2°50.759 39.8 6.7 37 14
2007-09-25 07:13:21 51°18.48 2°50.915 76.5 5.5 75 14.1
2007-09-25 07:14:21 51°18.505 2°51.003 47.7 2.3 54 13.5
2007-09-25 07:15:21 51°18.516 2°51.035 66.1 1 81 14
2007-09-25 07:16:21 51°18.514 2°51.057 78.3 0.6 131 14
2007-09-25 07:17:21 51°18.504 2°51.066 100.1 0.8 166 13.9
2007-09-25 07:18:21 51°18.492 2°51.067 113.9 0.7 189 13.8
2007-09-25 07:19:21 51°18.477 2°51.067 120.7 1.2 163 13.9
2007-09-25 07:20:21 51°18.471 2°51.132 68.6 3.9 68 13.8
2007-09-25 07:21:21 51°18.529 2°51.328 67.4 10.3 59 13.8
2007-09-25 07:22:21 51°18.594 2°51.602 74.6 11.1 72 13.3
2007-09-25 07:23:21 51°18.662 2°51.874 69.9 11.3 70 12.9
2007-09-25 07:24:21 51°18.734 2°52.151 72.5 11.1 68 12.7
2007-09-25 07:25:21 51°18.803 2°52.428 70.8 11.1 64 12.3
2007-09-25 07:26:21 51°18.876 2°52.7 68.2 11.2 68 12.1
2007-09-25 07:27:21 51°18.948 2°52.975 69.2 11.2 69 12
2007-09-25 07:28:21 51°19.02 2°53.247 71.5 11.1 66 12.1
2007-09-25 07:29:21 51°19.091 2°53.524 68.6 11 70 12
2007-09-25 07:30:21 51°19.156 2°53.799 69.2 10.6 75 12
2007-09-25 07:31:21 51°19.221 2°54.076 69.8 11.5 68 12
2007-09-25 07:32:21 51°19.291 2°54.347 69.4 11.2 66 12
2007-09-25 07:33:21 51°19.359 2°54.62 70 11.2 69 12.1
2007-09-25 07:34:21 51°19.429 2°54.895 71.9 11.5 66 12
2007-09-25 07:35:21 51°19.494 2°55.17 70.8 11.1 73 12
2007-09-25 07:36:21 51°19.56 2°55.444 69.7 10.8 73 12.1
2007-09-25 07:37:21 51°19.627 2°55.72 67.7 10.6 72 12
2007-09-25 07:38:21 51°19.698 2°55.991 68.8 11.1 67 11.7
2007-09-25 07:39:21 51°19.763 2°56.27 68 11 65 11.8
2007-09-25 07:40:21 51°19.825 2°56.549 71.1 11.6 70 11.4
2007-09-25 07:41:21 51°19.893 2°56.821 69.4 11 67 11.6
2007-09-25 07:42:21 51°19.961 2°57.098 69.6 11.7 67 11.4
2007-09-25 07:43:21 51°20.027 2°57.375 70.3 11.2 64 11.6
2007-09-25 07:44:21 51°20.098 2°57.65 69.7 11.3 63 11.5
2007-09-25 07:45:21 51°20.162 2°57.932 72.5 11.8 74 11.4
2007-09-25 07:46:21 51°20.229 2°58.207 70.4 11 69 11.4
2007-09-25 07:47:21 51°20.295 2°58.482 67.6 11.2 68 10.9
2007-09-25 07:48:21 51°20.363 2°58.76 70 10.8 73 11.3
2007-09-25 07:49:21 51°20.428 2°59.038 66.2 10.7 73 11.1
2007-09-25 07:50:21 51°20.495 2°59.314 71.5 11.4 66 11
2007-09-25 07:51:21 51°20.565 2°59.588 70.3 11.2 69 11
2007-09-25 07:52:21 51°20.629 2°59.862 72.4 10.7 73 11
2007-09-25 07:53:21 51°20.695 3°0.138 70.6 11 71 11.1
2007-09-25 07:54:21 51°20.763 3°0.414 73.1 11.3 70 11.2
2007-09-25 07:55:21 51°20.829 3°0.693 70 10.9 73 11.2
2007-09-25 07:56:21 51°20.89 3°0.975 70.3 11 73 11.1
2007-09-25 07:57:21 51°20.957 3°1.254 72.5 11.5 65 10.8
2007-09-25 07:58:21 51°21.023 3°1.532 70 11.2 70 11.1
2007-09-25 07:59:21 51°21.087 3°1.813 71.1 11.4 66 10.9
2007-09-25 08:00:21 51°21.152 3°2.097 71.5 11.3 66 11.2
2007-09-25 08:01:21 51°21.211 3°2.383 72.2 11.4 73 11.4
2007-09-25 08:02:21 51°21.276 3°2.667 70.6 11.7 71 11.4
2007-09-25 08:03:21 51°21.342 3°2.95 69.7 11 67 11.4
2007-09-25 08:04:21 51°21.404 3°3.235 72.1 11 70 11.2
2007-09-25 08:05:21 51°21.464 3°3.519 72.7 11 75 11.3
2007-09-25 08:06:21 51°21.523 3°3.811 73.3 11.4 71 11.7
2007-09-25 08:07:21 51°21.583 3°4.104 73.5 11.7 68 11.6
2007-09-25 08:08:21 51°21.64 3°4.393 74.1 11.4 77 11.7
2007-09-25 08:09:21 51°21.684 3°4.695 78.6 11.4 77 11.7
2007-09-25 08:10:21 51°21.725 3°4.992 77.8 11.3 76 11.8
2007-09-25 08:11:21 51°21.767 3°5.292 76.6 11.8 79 11.4
2007-09-25 08:12:21 51°21.811 3°5.589 76.8 11.3 73 11.3
2007-09-25 08:13:21 51°21.853 3°5.888 77.9 11.5 77 11.3
2007-09-25 08:14:21 51°21.896 3°6.186 79 11.4 78 11.4
2007-09-25 08:15:21 51°21.939 3°6.482 77.3 11.5 81 12
2007-09-25 08:16:21 51°21.985 3°6.782 76.6 11.7 77 12.1
2007-09-25 08:17:21 51°22.01 3°7.091 85 12.1 82 12.2
2007-09-25 08:18:21 51°22.029 3°7.399 85.2 12 82 12.2
2007-09-25 08:19:21 51°22.049 3°7.711 82.7 11.9 88 12.2
2007-09-25 08:20:21 51°22.07 3°8.025 83.7 11.7 83 12.2
2007-09-25 08:21:21 51°22.092 3°8.336 83.9 11.8 86 12.2
2007-09-25 08:22:21 51°22.115 3°8.653 83 12.5 87 12.3
2007-09-25 08:23:21 51°22.14 3°8.967 82.9 11.8 82 12.8
2007-09-25 08:24:21 51°22.161 3°9.282 82.1 12 84 13
2007-09-25 08:25:21 51°22.188 3°9.6 83.7 12 82 13.4
2007-09-25 08:26:21 51°22.213 3°9.921 84.9 12.4 84 13.9
2007-09-25 08:27:21 51°22.238 3°10.244 82.4 12 80 14.7
2007-09-25 08:28:21 51°22.262 3°10.565 82.5 12.3 84 18.7
2007-09-25 08:29:21 51°22.294 3°10.891 81.6 12 81 17.2
2007-09-25 08:30:21 51°22.322 3°11.219 82.7 12.3 87 16.2
2007-09-25 08:31:21 51°22.366 3°11.539 77 12.1 78 15.9
2007-09-25 08:32:21 51°22.426 3°11.853 74.8 12.5 71 15.7
2007-09-25 08:33:21 51°22.467 3°12.172 87.1 12.2 89 14.9
2007-09-25 08:34:21 51°22.478 3°12.495 90 11.7 87 14.4
2007-09-25 08:35:21 51°22.488 3°12.762 88.8 8.9 86 13.9
2007-09-25 08:36:21 51°22.5 3°12.983 86 7.8 85 13.2
2007-09-25 08:37:21 51°22.522 3°13.151 66.2 4.8 61 12.8
2007-09-25 08:38:21 51°22.567 3°13.212 22 2.9 24 12.6
2007-09-25 08:39:21 51°22.607 3°13.233 9.6 2.1 16 12.3
2007-09-25 08:40:21 51°22.626 3°13.244 350.9 1 24 12.3
2007-09-25 08:41:21 51°22.637 3°13.253 331.8 0.6 35 12.2
2007-09-25 08:42:21 51°22.645 3°13.264 324.5 0.7 39 12.3
2007-09-25 08:43:21 51°22.652 3°13.275 320.2 0.8 5 12.1
2007-09-25 08:44:21 51°22.718 3°13.251 347.4 7.5 346 11.9
2007-09-25 08:45:21 51°22.886 3°13.168 346.3 12 343 11.6
2007-09-25 08:46:21 51°23.079 3°13.068 345.9 12.3 343 11.7
2007-09-25 08:47:21 51°23.274 3°12.971 346.9 12.3 343 11
2007-09-25 08:48:21 51°23.468 3°12.875 346.6 12.2 343 11.6
2007-09-25 08:49:21 51°23.664 3°12.785 347.1 12.2 344 11.8
2007-09-25 08:50:21 51°23.857 3°12.695 347.8 12.1 346 12.4
2007-09-25 08:51:21 51°24.05 3°12.611 347.5 12.1 345 14.5
2007-09-25 08:52:21 51°24.248 3°12.528 347.4 12.2 347 18.8
2007-09-25 08:53:21 51°24.447 3°12.453 347.7 12.3 347 18.4
2007-09-25 08:54:21 51°24.638 3°12.362 339.5 11.7 336 15.4
2007-09-25 08:55:21 51°24.799 3°12.196 326.1 11.4 324 13.7
2007-09-25 08:56:21 51°24.955 3°12.02 326.8 11.4 323 12.1
2007-09-25 08:57:21 51°25.102 3°11.83 318.2 11.2 315 11.3
2007-09-25 08:58:21 51°25.208 3°11.589 305.5 11 302 10.7
2007-09-25 08:59:21 51°25.306 3°11.34 305 11 301 10.2
2007-09-25 09:00:22 51°25.404 3°11.09 306.7 10.4 302 10.8
2007-09-25 09:01:21 51°25.499 3°10.854 306.2 10.7 303 8.9
2007-09-25 09:02:21 51°25.594 3°10.609 306.5 10.9 301 8.2
2007-09-25 09:03:21 51°25.687 3°10.364 306.9 10.9 301 8.4
2007-09-25 09:04:21 51°25.784 3°10.122 307.3 10.9 301 8.6
2007-09-25 09:05:21 51°25.876 3°9.872 306.6 10.9 302 8.1
2007-09-25 09:06:21 51°25.972 3°9.627 308 11 302 8.7
2007-09-25 09:07:21 51°26.067 3°9.373 306.9 10.8 301 9.6
2007-09-25 09:08:21 51°26.154 3°9.144 307.9 9.5 301 10
2007-09-25 09:09:21 51°26.239 3°8.926 307.5 9.6 303 10.6
2007-09-25 09:10:21 51°26.312 3°8.735 306.3 7.7 302 11.2
2007-09-25 09:11:21 51°26.375 3°8.567 307.4 7.1 300 11.5
2007-09-25 09:12:21 51°26.414 3°8.456 303.5 3.7 297 11.5
2007-09-25 09:13:21 51°26.435 3°8.382 302.7 3.2 296 11.5
2007-09-25 09:14:21 51°26.448 3°8.343 301.4 0.9 293 11.7
2007-09-25 09:15:21 51°26.448 3°8.336 296.7 0.2 80 11.5
2007-09-25 09:16:21 51°26.447 3°8.345 302.6 0.5 90 11.6
2007-09-25 09:17:21 51°26.444 3°8.368 315.6 0.9 100 12
2007-09-25 09:18:21 51°26.441 3°8.393 322.3 0.4 46 11.6
2007-09-25 09:19:21 51°26.481 3°8.298 303.1 8.2 297 11.8
2007-09-25 09:20:22 51°26.559 3°8.055 302.3 10.7 298 11.5
2007-09-25 09:21:22 51°26.637 3°7.829 304.8 6.3 299 -999
2007-09-25 09:22:21 51°26.669 3°7.733 300.4 3 297 12
2007-09-25 09:23:21 51°26.687 3°7.685 303.2 1.5 308 12
2007-09-25 09:24:21 51°26.699 3°7.656 301 1.2 297 12
2007-09-25 09:25:21 51°26.71 3°7.632 304.8 1.1 309 11.8
2007-09-25 09:26:21 51°26.723 3°7.61 303.5 1.2 315 12.4
2007-09-25 09:27:21 51°26.734 3°7.593 305.8 1 319 12.2
2007-09-25 09:28:21 51°26.746 3°7.577 304.5 1 315 12.2
2007-09-25 09:29:21 51°26.758 3°7.56 306.6 0.9 322 12
2007-09-25 09:30:21 51°26.771 3°7.544 306.5 0.9 326 12.5
2007-09-25 09:31:21 51°26.783 3°7.532 305.5 0.8 336 12.2
2007-09-25 09:32:21 51°26.796 3°7.52 307.1 0.9 335 12.5
2007-09-25 09:33:21 51°26.81 3°7.509 308.6 1 335 12.8
2007-09-25 09:34:21 51°26.822 3°7.499 305.5 0.6 322 12.7
2007-09-25 09:35:21 51°26.854 3°7.442 310.7 6.8 308 12.6
2007-09-25 09:36:21 51°26.94 3°7.232 305 10.9 300 13.6
2007-09-25 09:37:21 51°27.032 3°6.991 301.7 10.9 296 13.6
2007-09-25 09:38:21 51°27.117 3°6.727 301 11.3 298 14
2007-09-25 09:39:21 51°27.204 3°6.471 301.3 11.1 297 14.8
2007-09-25 09:40:21 51°27.288 3°6.211 301.8 11 297 14.9
2007-09-25 09:41:21 51°27.374 3°5.945 301.3 11.1 302 -999
2007-09-25 09:42:21 51°27.461 3°5.68 300.4 11.4 298 15.6
2007-09-25 09:43:21 51°27.547 3°5.412 301 11.2 297 16.1
2007-09-25 09:44:21 51°27.638 3°5.144 301.1 11.6 298 15.8
2007-09-25 09:45:21 51°27.726 3°4.883 301.7 11 297 15.8
2007-09-25 09:46:21 51°27.833 3°4.643 316.4 11.2 321 16.4
2007-09-25 09:47:21 51°27.955 3°4.427 300.9 10.2 297 18.2
2007-09-25 09:48:21 51°28.03 3°4.198 300.3 9.2 298 19.5
2007-09-25 09:49:21 51°28.106 3°3.977 301.1 9.4 302 20.8
2007-09-25 09:50:22 51°28.175 3°3.803 301.2 6.3 302 22.3
2007-09-25 09:51:21 51°28.225 3°3.67 296.8 5.7 302 22.7
2007-09-25 09:52:21 51°28.263 3°3.576 294.9 3.1 308 23.4
2007-09-25 09:53:21 51°28.287 3°3.525 290.9 2 312 24.1
2007-09-25 09:54:21 51°28.307 3°3.505 293 1.1 352 24.1
2007-09-25 09:55:21 51°28.324 3°3.512 300.5 1.1 36 24.2
2007-09-25 09:56:21 51°28.337 3°3.539 312.3 1.5 61 24.2
2007-09-25 09:57:21 51°28.349 3°3.572 327.3 1.6 53 23.7
2007-09-25 09:58:21 51°28.379 3°3.56 300.3 3 311 24.4
2007-09-25 09:59:21 51°28.38 3°3.489 245.1 2.4 240 24.6
2007-09-25 10:00:21 51°28.343 3°3.435 232.7 3.7 227 24.7
2007-09-25 10:01:21 51°28.303 3°3.359 239.5 3.6 230 24.3
2007-09-25 10:02:21 51°28.273 3°3.281 242.9 3.6 244 24.4
2007-09-25 10:03:21 51°28.243 3°3.204 240.2 3.3 236 24.6
2007-09-25 10:04:21 51°28.213 3°3.127 240.6 2.9 243 24.6
2007-09-25 10:05:21 51°28.187 3°3.06 238 2.9 235 24.7
2007-09-25 10:06:21 51°28.159 3°2.988 243.1 3.4 242 24.9
2007-09-25 10:07:21 51°28.131 3°2.911 239.9 2.9 238 24.8
2007-09-25 10:08:21 51°28.104 3°2.839 240.2 3 237 24.8
2007-09-25 10:09:21 51°28.079 3°2.758 243.4 3.8 244 25.3
2007-09-25 10:10:21 51°28.048 3°2.67 240.6 4 238 25.2
2007-09-25 10:11:21 51°28.016 3°2.591 240.1 2.7 239 -999
2007-09-25 10:12:21 51°27.994 3°2.519 245.8 3.3 245 25.4
2007-09-25 10:13:21 51°27.968 3°2.442 242.3 3.5 244 25.5
2007-09-25 10:14:21 51°27.942 3°2.355 245.7 3.9 245 25.6
2007-09-25 10:15:21 51°27.914 3°2.262 243.3 3.9 243 25.4
2007-09-25 10:16:21 51°27.886 3°2.174 244 3.4 245 25.4
2007-09-25 10:17:21 51°27.866 3°2.102 245.3 3.3 246 25.6
2007-09-25 10:18:21 51°27.847 3°2.025 247.1 3.5 253 25.6
2007-09-25 10:19:21 51°27.825 3°1.935 247.6 3.9 250 25.1
2007-09-25 10:20:21 51°27.801 3°1.838 246.1 4.1 245 24.9
2007-09-25 10:21:21 51°27.778 3°1.739 248.9 4.1 252 25
2007-09-25 10:22:21 51°27.744 3°1.555 255.2 10 258 24.3
2007-09-25 10:23:21 51°27.708 3°1.276 257.6 10.8 260 24.5
2007-09-25 10:24:21 51°27.675 3°1 258 10.9 260 25.4
2007-09-25 10:25:21 51°27.642 3°0.709 257.8 11.2 260 25.5
2007-09-25 10:26:21 51°27.611 3°0.422 256.9 10.8 258 24.5
2007-09-25 10:27:21 51°27.575 3°0.135 257.8 11 259 22.3
2007-09-25 10:28:21 51°27.541 2°59.847 257.6 11 259 21.5
2007-09-25 10:29:21 51°27.507 2°59.563 257.2 11 258 22.9
2007-09-25 10:30:21 51°27.471 2°59.277 256.8 10.9 258 21.6
2007-09-25 10:31:21 51°27.435 2°58.994 257.2 10.9 260 20.5
2007-09-25 10:32:21 51°27.4 2°58.712 256.9 10.6 259 20.2
2007-09-25 10:33:21 51°27.366 2°58.432 258.1 10.8 260 18.4
2007-09-25 10:34:21 51°27.332 2°58.146 257.6 10.8 258 20.2
2007-09-25 10:35:21 51°27.297 2°57.858 257.6 11 258 23.3
2007-09-25 10:36:21 51°27.262 2°57.57 257.1 10.9 260 24.6
2007-09-25 10:37:21 51°27.228 2°57.284 257 11.1 260 26.8
2007-09-25 10:38:21 51°27.194 2°56.997 256.4 10.9 258 26.5
2007-09-25 10:39:21 51°27.158 2°56.718 256.5 10.6 259 20.9
2007-09-25 10:40:21 51°27.123 2°56.439 255.6 10.8 259 27.2
2007-09-25 10:41:21 51°27.088 2°56.156 256.5 11 260 30.5
2007-09-25 10:42:21 51°27.053 2°55.869 256.1 10.9 257 31.5
2007-09-25 10:43:21 51°27.018 2°55.585 256 10.9 258 31.8
2007-09-25 10:44:21 51°26.982 2°55.299 256 10.9 258 29.7
2007-09-25 10:45:21 51°26.946 2°55.015 256.1 10.8 258 28.5
2007-09-25 10:46:21 51°26.911 2°54.733 257.2 10.8 259 29.2
2007-09-25 10:47:21 51°26.877 2°54.452 256.1 10.8 259 26.7
2007-09-25 10:48:21 51°26.845 2°54.174 254.9 10.6 258 26.8
2007-09-25 10:49:22 51°26.803 2°53.894 253.3 10.6 257 29.6
2007-09-25 10:50:21 51°26.763 2°53.62 253.7 10.9 256 31.8
2007-09-25 10:51:22 51°26.721 2°53.332 254.4 10.8 257 32.3
2007-09-25 10:52:21 51°26.677 2°53.056 255.4 10.9 257 32.1
2007-09-25 10:53:21 51°26.632 2°52.779 254.3 10.7 254 30.7
2007-09-25 10:54:21 51°26.585 2°52.505 254 10.7 255 29.3
2007-09-25 10:55:21 51°26.539 2°52.233 254 10.6 256 28.4
2007-09-25 10:56:21 51°26.494 2°51.962 254.5 10.4 255 27.5
2007-09-25 10:57:21 51°26.448 2°51.69 254.8 10.6 256 28.2
2007-09-25 10:58:21 51°26.408 2°51.417 255.7 10.6 253 29.2
2007-09-25 10:59:21 51°26.368 2°51.14 257.2 10.7 258 27.4
2007-09-25 11:00:21 51°26.329 2°50.868 256.1 10.4 256 25.8
2007-09-25 11:01:21 51°26.287 2°50.595 256.7 10.7 255 25.8
2007-09-25 11:02:21 51°26.246 2°50.319 255.9 10.6 256 25.9
2007-09-25 11:03:21 51°26.204 2°50.047 255.4 10.6 257 25.8
2007-09-25 11:04:21 51°26.163 2°49.775 256 10.4 256 25.5
2007-09-25 11:05:21 51°26.121 2°49.504 256.2 10.4 256 25.8
2007-09-25 11:06:21 51°26.084 2°49.23 258 10.7 258 25.7
2007-09-25 11:07:21 51°26.056 2°48.983 259.2 8 260 25.7
2007-09-25 11:08:21 51°26.037 2°48.803 258.5 5.6 262 25.9
2007-09-25 11:09:21 51°26.028 2°48.674 258.8 4.6 265 26.3
2007-09-25 11:10:21 51°26.019 2°48.586 252.5 2.1 264 25.9
2007-09-25 11:11:21 51°26.016 2°48.56 242.7 0.5 249 25.4
2007-09-25 11:12:21 51°26.014 2°48.561 230.9 0.6 72 25.7
2007-09-25 11:13:21 51°26.021 2°48.587 226.7 1.5 65 26
2007-09-25 11:14:21 51°26.032 2°48.633 213 2.1 62 26.4
2007-09-25 11:15:21 51°26.049 2°48.684 190.1 2.3 62 26.1
2007-09-25 11:16:21 51°26.07 2°48.735 169.4 2.3 57 26.4
2007-09-25 11:17:21 51°26.09 2°48.784 156.7 2.3 57 25
2007-09-25 11:18:21 51°26.111 2°48.834 146 2.3 56 25.7
2007-09-25 11:19:21 51°26.111 2°48.903 147.3 3.7 118 26
2007-09-25 11:20:21 51°26.071 2°48.927 223.6 2.2 211 25.8
2007-09-25 11:21:21 51°26.04 2°48.868 235.6 3.4 229 25.6
2007-09-25 11:22:21 51°26.002 2°48.797 238.3 3.9 233 26
2007-09-25 11:23:21 51°25.969 2°48.703 243.6 4.3 243 26.1
2007-09-25 11:24:21 51°25.935 2°48.603 242.8 4.3 243 26.5
2007-09-25 11:25:21 51°25.902 2°48.506 243.1 4.2 243 26
2007-09-25 11:26:21 51°25.867 2°48.411 242.9 4.3 243 25.9
2007-09-25 11:27:21 51°25.836 2°48.305 242.9 4.5 243 25.9
2007-09-25 11:28:21 51°25.8 2°48.201 241.6 4.4 241 25.9
2007-09-25 11:29:21 51°25.763 2°48.096 243.8 4.2 243 26
2007-09-25 11:30:21 51°25.736 2°47.997 242.5 4.2 244 26.1
2007-09-25 11:31:21 51°25.708 2°47.896 242.4 4.3 245 26.3
2007-09-25 11:32:21 51°25.677 2°47.801 241.9 3.9 243 25.9
2007-09-25 11:33:21 51°25.642 2°47.702 241.4 5.6 242 27
2007-09-25 11:34:21 51°25.581 2°47.488 248.2 10.1 248 27.6
2007-09-25 11:35:21 51°25.515 2°47.23 248.6 10.8 248 27.8
2007-09-25 11:36:21 51°25.447 2°46.969 248.6 10.7 249 27.1
2007-09-25 11:37:21 51°25.376 2°46.707 248.5 10.6 248 27.3
2007-09-25 11:38:21 51°25.308 2°46.443 247.9 10.7 248 26.2
2007-09-25 11:39:22 51°25.24 2°46.174 248.2 10.8 247 27.7
2007-09-25 11:40:21 51°25.173 2°45.914 247.7 10.6 247 27.2
2007-09-25 11:41:21 51°25.106 2°45.652 247.7 10.7 248 25.5
2007-09-25 11:42:21 51°25.038 2°45.394 248.9 10.6 248 26.8
2007-09-25 11:43:21 51°24.971 2°45.134 248.1 10.5 246 28.9
2007-09-25 11:44:22 51°24.903 2°44.869 248.2 10.6 247 28.9
2007-09-25 11:45:21 51°24.838 2°44.611 249 10.7 249 28.6
2007-09-25 11:46:22 51°24.772 2°44.346 248.7 10.4 249 28
2007-09-25 11:47:21 51°24.705 2°44.091 247.8 10.6 247 18.7
2007-09-25 11:48:21 51°24.637 2°43.832 248.7 10.7 248 25.5
2007-09-25 11:49:21 51°24.571 2°43.57 248.2 10.6 248 25
2007-09-25 11:50:21 51°24.504 2°43.307 248.4 10.6 249 27.3
2007-09-25 11:51:21 51°24.438 2°43.046 248.8 10.6 249 24.8
2007-09-25 11:52:21 51°24.374 2°42.786 248.2 10.6 248 26.3
2007-09-25 11:53:22 51°24.307 2°42.522 247.7 10.6 248 28.7
2007-09-25 11:54:21 51°24.241 2°42.266 248.3 10.5 248 25.5
2007-09-25 11:55:22 51°24.155 2°42.021 236.8 10.4 235 28.9
2007-09-25 11:56:21 51°24.059 2°41.795 237.4 10.5 237 28.8
2007-09-25 11:57:22 51°23.958 2°41.558 237 10.7 236 26.8
2007-09-25 11:58:21 51°23.86 2°41.324 238 10.6 237 27.8
2007-09-25 11:59:22 51°23.762 2°41.082 238.3 10.6 236 30.1
2007-09-25 12:00:22 51°23.665 2°40.847 238 10.5 238 30.2
2007-09-25 12:01:21 51°23.602 2°40.591 251.4 10.7 252 31.6
2007-09-25 12:02:21 51°23.545 2°40.323 251.4 10.8 251 30.9
2007-09-25 12:03:21 51°23.486 2°40.051 250.3 10.8 251 31.6
2007-09-25 12:04:21 51°23.428 2°39.785 249.8 10.4 250 30.6
2007-09-25 12:05:21 51°23.37 2°39.515 251.7 10.7 252 31.2
2007-09-25 12:06:21 51°23.312 2°39.247 250.4 10.7 251 30.7
2007-09-25 12:07:22 51°23.253 2°38.971 251.4 10.6 250 32
2007-09-25 12:08:21 51°23.199 2°38.715 250.2 10.2 251 31.6
2007-09-25 12:09:21 51°23.145 2°38.459 250.2 10.2 252 28.9
2007-09-25 12:10:21 51°23.094 2°38.201 250.7 10.2 253 31.3
2007-09-25 12:11:22 51°23.039 2°37.937 250.2 10.4 254 31.6
2007-09-25 12:12:21 51°22.988 2°37.679 250.4 10.5 252 30.9
2007-09-25 12:13:22 51°22.932 2°37.409 249.6 10.5 251 30.4
2007-09-25 12:14:21 51°22.876 2°37.147 251.5 10.5 252 29.9
2007-09-25 12:15:22 51°22.819 2°36.882 250.6 10.4 250 30.6
2007-09-25 12:16:21 51°22.765 2°36.624 250.4 10.4 252 30.8
2007-09-25 12:17:22 51°22.709 2°36.356 250.8 10.6 252 30
2007-09-25 12:18:22 51°22.655 2°36.088 250.4 10.5 251 29.7
2007-09-25 12:19:21 51°22.601 2°35.827 250.3 10.7 252 27.4
2007-09-25 12:20:21 51°22.546 2°35.559 250.3 10.5 250 29.7
2007-09-25 12:21:21 51°22.431 2°35.369 209.8 10.3 200 28.9
2007-09-25 12:22:21 51°22.251 2°35.356 185.3 11.1 179 30.1
2007-09-25 12:23:22 51°22.066 2°35.355 188.9 10.9 182 31.2
2007-09-25 12:24:21 51°21.887 2°35.347 190.1 10.7 182 31.5
2007-09-25 12:25:22 51°21.706 2°35.331 190.6 10.6 183 32.9
2007-09-25 12:26:21 51°21.531 2°35.314 191.1 10.5 185 33.4
2007-09-25 12:27:22 51°21.356 2°35.272 206.1 10.3 205 36.1
2007-09-25 12:28:21 51°21.252 2°35.078 246.2 10.2 251 37.9
2007-09-25 12:29:22 51°21.198 2°34.81 247.2 10.4 250 33.7
2007-09-25 12:30:21 51°21.131 2°34.561 245.3 10.4 247 32.7
2007-09-25 12:31:22 51°21.062 2°34.3 244.4 10.5 246 32.9
2007-09-25 12:32:21 51°21.001 2°34.041 250.4 10.7 252 32.5
2007-09-25 12:33:22 51°20.948 2°33.769 249.8 10.5 253 32.9
2007-09-25 12:34:22 51°20.891 2°33.503 249.4 10.5 251 31.8
2007-09-25 12:35:22 51°20.834 2°33.237 249.8 10.7 252 32.8
2007-09-25 12:36:22 51°20.773 2°32.97 248.4 10.7 250 31.8
2007-09-25 12:37:21 51°20.71 2°32.708 248.2 10.8 250 32.3
2007-09-25 12:38:22 51°20.647 2°32.435 248.1 10.9 249 31.9
2007-09-25 12:39:22 51°20.583 2°32.163 248.5 10.8 249 32.6
2007-09-25 12:40:21 51°20.517 2°31.904 246.7 11 247 29.8
2007-09-25 12:41:22 51°20.447 2°31.634 246.7 10.6 248 25.3
2007-09-25 12:42:21 51°20.376 2°31.375 247.3 11 246 22.2
2007-09-25 12:43:22 51°20.304 2°31.107 246.9 10.7 244 19.9
2007-09-25 12:44:21 51°20.226 2°30.856 246.5 10.8 245 16.6
2007-09-25 12:45:22 51°20.155 2°30.607 246.8 8.9 246 16.3
2007-09-25 12:46:21 51°20.099 2°30.399 247.5 8.1 248 15.1
2007-09-25 12:47:22 51°20.046 2°30.206 246.8 7.6 247 13.3
2007-09-25 12:48:21 51°20.008 2°30.056 247.8 4 247 12.3
2007-09-25 12:49:22 51°19.996 2°30.008 249.3 0.5 288 16.4
2007-09-25 12:50:22 51°20.004 2°30.01 259.6 0.8 36 16.1
2007-09-25 12:51:22 51°20.016 2°30.033 257.7 1.4 53 15.5
2007-09-25 12:52:22 51°20.03 2°30.068 257.4 1.6 60 14.6
2007-09-25 12:53:22 51°20.045 2°30.11 258.3 2 60 13.9
2007-09-25 12:54:22 51°20.061 2°30.158 262.4 2.2 63 15.2
2007-09-25 12:55:21 51°20.076 2°30.2 252.6 0.9 53 13.4
2007-09-25 12:56:21 51°20.057 2°30.218 176.9 3 139 13.6
2007-09-25 12:57:22 51°19.997 2°30.335 148.4 8.6 136 15.6
2007-09-25 12:58:21 51°19.854 2°30.53 146.3 12.4 136 17.8
2007-09-25 12:59:22 51°19.705 2°30.771 140.7 12.5 135 21.4
2007-09-25 13:00:21 51°19.567 2°31.016 135.6 12.6 129 28.8
2007-09-25 13:01:22 51°19.435 2°31.281 135 12.5 130 31.2
2007-09-25 13:02:21 51°19.309 2°31.537 135.4 12.6 124 31.7
2007-09-25 13:03:22 51°19.177 2°31.8 135.2 12.5 129 32
2007-09-25 13:04:22 51°19.047 2°32.062 136.9 12.7 127 31.8
2007-09-25 13:05:22 51°18.915 2°32.316 142.9 12.5 133 32.1
2007-09-25 13:06:22 51°18.775 2°32.559 140.3 12.4 132 31
2007-09-25 13:07:22 51°18.639 2°32.803 142.1 12.3 131 29.3
2007-09-25 13:08:22 51°18.501 2°33.041 141.2 12.1 132 25.2
2007-09-25 13:09:22 51°18.364 2°33.28 141.1 12.3 132 20.7
2007-09-25 13:10:22 51°18.225 2°33.518 141.8 12.3 131 21.8
2007-09-25 13:11:22 51°18.084 2°33.76 140.7 12.3 134 28.2
2007-09-25 13:12:22 51°17.945 2°34.003 143.1 12.4 132 29.6
2007-09-25 13:13:22 51°17.794 2°34.224 146.8 12 140 28.5
2007-09-25 13:14:21 51°17.645 2°34.44 146.3 12.4 138 25
2007-09-25 13:15:22 51°17.49 2°34.667 146.6 12.5 135 9.4
2007-09-25 13:16:21 51°17.337 2°34.882 147 12.5 137 13.6
2007-09-25 13:17:22 51°17.179 2°35.104 146.8 12.2 139 12.3
2007-09-25 13:18:21 51°17.025 2°35.314 145.8 12.4 143 13.5
2007-09-25 13:19:22 51°16.865 2°35.533 146.3 12.6 137 19.7
2007-09-25 13:20:21 51°16.709 2°35.736 145.7 12.4 141 27.5
2007-09-25 13:21:22 51°16.551 2°35.954 147.1 12.3 141 28.1
2007-09-25 13:22:22 51°16.395 2°36.17 144.1 12.5 141 29.4
2007-09-25 13:23:22 51°16.282 2°36.412 111.6 11.2 99 29.1
2007-09-25 13:24:22 51°16.309 2°36.724 82.7 12.4 72 28.9
2007-09-25 13:25:22 51°16.39 2°37.015 59.5 10.3 52 28.2
2007-09-25 13:26:22 51°16.489 2°37.087 348.2 4.9 2 28
2007-09-25 13:27:22 51°16.541 2°37.043 273.5 2.8 291 27.4
2007-09-25 13:28:22 51°16.555 2°36.929 281.4 5.5 292 27.6
2007-09-25 13:29:22 51°16.587 2°36.836 281.4 3 303 27.6
2007-09-25 13:30:22 51°16.613 2°36.807 299.7 1.6 5 27.6
2007-09-25 13:31:22 51°16.64 2°36.823 332.2 1.9 27 27.7
2007-09-25 13:32:21 51°16.667 2°36.852 348.3 2.1 36 27.7
2007-09-25 13:33:22 51°16.694 2°36.886 349.8 2 39 27.3
2007-09-25 13:34:21 51°16.718 2°36.918 346.2 2.2 32 27.4
2007-09-25 13:35:22 51°16.758 2°36.916 297.2 2.4 326 27.7
2007-09-25 13:36:22 51°16.748 2°36.873 208.7 2.9 187 27.8
2007-09-25 13:37:22 51°16.66 2°36.932 168.6 9.4 160 27.4
2007-09-25 13:38:22 51°16.484 2°37.014 171.1 11.6 164 27.6
2007-09-25 13:39:22 51°16.307 2°37.134 158.4 11.8 148 26.5
2007-09-25 13:40:22 51°16.136 2°37.289 157.2 11.7 148 18
2007-09-25 13:41:22 51°15.967 2°37.439 157.9 11.5 154 10.7
2007-09-25 13:42:22 51°15.799 2°37.592 156 11.9 153 10.6
2007-09-25 13:43:22 51°15.627 2°37.746 156 12 153 12.2
2007-09-25 13:44:22 51°15.453 2°37.901 159.1 12 153 11.9
2007-09-25 13:45:22 51°15.277 2°38.049 158.2 11.9 154 12.2
2007-09-25 13:46:22 51°15.102 2°38.199 157.5 12 149 14.5
2007-09-25 13:47:22 51°14.925 2°38.347 156.1 12.1 156 16.9
2007-09-25 13:48:22 51°14.75 2°38.502 156.6 12.1 150 17.8
2007-09-25 13:49:22 51°14.577 2°38.656 156.8 12 150 17.8
2007-09-25 13:50:21 51°14.403 2°38.803 156.8 12.1 150 18.6
2007-09-25 13:51:22 51°14.223 2°38.955 156.8 12 152 13.8
2007-09-25 13:52:22 51°14.036 2°39.028 183.6 11.7 181 14.2
2007-09-25 13:53:22 51°13.847 2°38.963 200.3 11.7 195 15.1
2007-09-25 13:54:22 51°13.665 2°38.854 205.1 11.6 201 15.5
2007-09-25 13:55:22 51°13.485 2°38.746 203.4 11.7 201 15.3
2007-09-25 13:56:22 51°13.303 2°38.639 202.7 11.7 199 15.1
2007-09-25 13:57:21 51°13.126 2°38.524 206.9 11.7 204 15
2007-09-25 13:58:22 51°12.944 2°38.403 206.1 11.7 203 14.6
2007-09-25 13:59:22 51°12.766 2°38.284 206.1 11.6 202 14
2007-09-25 14:00:22 51°12.588 2°38.166 206.1 11.6 202 13.9
2007-09-25 14:01:22 51°12.408 2°38.05 205.7 11.6 202 14
2007-09-25 14:02:22 51°12.229 2°37.933 205.2 11.6 202 14
2007-09-25 14:03:22 51°12.05 2°37.815 205.3 11.6 202 14.3
2007-09-25 14:04:22 51°11.875 2°37.683 209 11.7 205 14.4
2007-09-25 14:05:22 51°11.701 2°37.548 207.8 11.8 206 14.7
2007-09-25 14:06:22 51°11.526 2°37.414 208.2 11.7 206 14.5
2007-09-25 14:07:21 51°11.353 2°37.282 208.3 11.8 205 14.2
2007-09-25 14:08:22 51°11.174 2°37.147 209 11.7 204 13.5
2007-09-25 14:09:22 51°10.999 2°37.014 208.7 11.7 205 12.5
2007-09-25 14:10:22 51°10.825 2°36.882 208.3 11.5 207 11.3
2007-09-25 14:11:22 51°10.653 2°36.748 208.7 11.5 208 10.3
2007-09-25 14:12:22 51°10.48 2°36.617 207.1 11.4 204 9.6
2007-09-25 14:13:22 51°10.296 2°36.551 181.1 11.7 175 14.9
2007-09-25 14:14:22 51°10.138 2°36.727 129.4 12.2 122 18.5
2007-09-25 14:15:22 51°10.108 2°37.045 90 12.4 83 18.4
2007-09-25 14:16:22 51°10.151 2°37.371 83.8 12.5 83 18.4
2007-09-25 14:17:22 51°10.185 2°37.701 84.8 12.7 82 18.2
2007-09-25 14:18:22 51°10.221 2°38.032 84.1 12.7 81 17.2
2007-09-25 14:19:22 51°10.25 2°38.365 86 12.7 81 16.6
2007-09-25 14:20:22 51°10.287 2°38.695 83.7 12.7 81 16.9
2007-09-25 14:21:22 51°10.321 2°39.027 83 12.7 81 16.2
2007-09-25 14:22:22 51°10.363 2°39.357 81.8 12.7 78 15.2
2007-09-25 14:23:22 51°10.403 2°39.684 83.9 12.7 80 14.7
2007-09-25 14:24:22 51°10.466 2°40 71.7 12.3 72 14.2
2007-09-25 14:25:22 51°10.522 2°40.318 82.7 12.4 81 13.9
2007-09-25 14:26:22 51°10.568 2°40.639 76.2 12.5 74 13.3
2007-09-25 14:27:22 51°10.615 2°40.959 81.1 12.5 79 13
2007-09-25 14:28:22 51°10.66 2°41.279 79.8 12.3 77 13
2007-09-25 14:29:22 51°10.701 2°41.599 80.5 12.1 77 12.8
2007-09-25 14:30:22 51°10.743 2°41.917 79.6 12.2 80 12.8
2007-09-25 14:31:22 51°10.788 2°42.227 78.6 10.8 73 12.7
2007-09-25 14:32:22 51°10.892 2°42.316 8.2 6.6 6 13.1
2007-09-25 14:33:22 51°10.991 2°42.284 328 5.8 327 13.2
2007-09-25 14:34:22 51°11.061 2°42.177 312.2 5.3 315 13.1
2007-09-25 14:35:22 51°11.106 2°42.098 301.3 3 308 12.7
2007-09-25 14:36:22 51°11.124 2°42.075 323.6 0.6 17 12.7
2007-09-25 14:37:22 51°11.133 2°42.087 356.5 0.8 54 12.6
2007-09-25 14:38:22 51°11.139 2°42.104 12.8 0.7 59 12.6
2007-09-25 14:39:22 51°11.144 2°42.123 21.4 0.8 81 12.6
2007-09-25 14:40:22 51°11.148 2°42.141 21 0.8 60 12.5
2007-09-25 14:41:22 51°11.171 2°42.196 70.2 3.7 74 12.5
2007-09-25 14:42:22 51°11.161 2°42.374 97.1 10.3 95 12.6
2007-09-25 14:43:22 51°11.158 2°42.689 89.1 12.4 86 12.8
2007-09-25 14:44:22 51°11.186 2°43.016 81.6 12.5 79 12.9
2007-09-25 14:45:22 51°11.243 2°43.33 72.5 12.1 70 13
2007-09-25 14:46:22 51°11.311 2°43.637 74.1 12.3 72 13
2007-09-25 14:47:22 51°11.375 2°43.945 73.8 12.2 71 13.1
2007-09-25 14:48:22 51°11.443 2°44.251 73.2 12.5 70 13
2007-09-25 14:49:22 51°11.511 2°44.559 73.6 12.1 72 13.1
2007-09-25 14:50:22 51°11.576 2°44.869 73.9 12.3 71 13
2007-09-25 14:51:22 51°11.638 2°45.181 74.5 12.3 71 13.1
2007-09-25 14:52:22 51°11.7 2°45.493 74.8 12.3 74 13.1
2007-09-25 14:53:22 51°11.763 2°45.805 75.4 12.4 72 13.1
2007-09-25 14:54:22 51°11.828 2°46.114 74.3 12.3 75 13.2
2007-09-25 14:55:22 51°11.89 2°46.426 73.4 12.2 73 13
2007-09-25 14:56:22 51°11.955 2°46.735 73.3 12.3 70 13
2007-09-25 14:57:22 51°12.019 2°47.043 74.7 12.3 73 12.8
2007-09-25 14:58:22 51°12.096 2°47.343 66.5 12.3 65 12.8
2007-09-25 14:59:22 51°12.179 2°47.638 68.3 12.3 66 12.6
2007-09-25 15:00:22 51°12.271 2°47.927 63.1 12.2 61 12.5
2007-09-25 15:01:22 51°12.37 2°48.212 64.3 12.3 64 12.4
2007-09-25 15:02:22 51°12.455 2°48.506 65.4 12.3 62 12.2
2007-09-25 15:03:22 51°12.541 2°48.799 67.1 12.2 64 12.2
2007-09-25 15:04:22 51°12.628 2°49.092 66 12.3 62 12
2007-09-25 15:05:22 51°12.715 2°49.385 66.7 12.2 64 11.8
2007-09-25 15:06:22 51°12.804 2°49.674 66.7 12.3 65 11.6
2007-09-25 15:07:22 51°12.892 2°49.963 66.1 12.2 65 11.5
2007-09-25 15:08:22 51°12.982 2°50.252 63.5 12.1 61 11.4
2007-09-25 15:09:22 51°13.077 2°50.533 63.7 11.9 61 11.2
2007-09-25 15:10:22 51°13.168 2°50.817 63.7 12 62 11
2007-09-25 15:11:22 51°13.265 2°51.093 62.8 12 60 11
2007-09-25 15:12:22 51°13.359 2°51.374 63.3 12 62 10.7
2007-09-25 15:13:22 51°13.454 2°51.652 64.5 12 63 10.6
2007-09-25 15:14:22 51°13.55 2°51.932 63.5 12 62 10.6
2007-09-25 15:15:22 51°13.649 2°52.209 63.1 12.1 59 10.5
2007-09-25 15:16:22 51°13.742 2°52.49 64.5 11.9 60 10.3
2007-09-25 15:17:22 51°13.838 2°52.766 62.4 11.9 60 10.2
2007-09-25 15:18:22 51°13.93 2°53.048 64.6 11.9 63 9.8
2007-09-25 15:19:22 51°14.028 2°53.329 62.4 12.1 61 9.7
2007-09-25 15:20:22 51°14.126 2°53.609 63.7 12 65 9.2
2007-09-25 15:21:22 51°14.215 2°53.893 64.9 11.9 64 9
2007-09-25 15:22:22 51°14.308 2°54.161 62 11.1 60 9
2007-09-25 15:23:22 51°14.381 2°54.439 75.6 11.7 78 9.3
2007-09-25 15:24:22 51°14.383 2°54.747 93.2 11.8 92 9.9
2007-09-25 15:25:22 51°14.348 2°55.049 108.4 11.7 109 9.6
2007-09-25 15:26:21 51°14.264 2°55.251 133.4 7.2 132 10.4
2007-09-25 15:27:22 51°14.186 2°55.357 147.6 6.4 146 10.6
2007-09-25 15:28:22 51°14.075 2°55.451 156.5 8 155 10
2007-09-25 15:29:22 51°13.951 2°55.539 157.3 8.2 156 10.6
2007-09-25 15:30:25 51°13.825 2°55.637 153.1 7.6 152 -999
2007-09-25 15:31:25 51°13.739 2°55.744 134.3 6.2 134 -999
2007-09-25 15:32:25 51°13.675 2°55.867 129.1 5.6 127 -999
2007-09-25 15:33:26 51°13.632 2°55.973 116.5 3.9 116 -999
2007-09-25 15:34:25 51°13.614 2°56.055 110.6 2.9 107 -999
2007-09-25 15:35:25 51°13.604 2°56.093 116.8 0.7 118 -999
2007-09-25 15:36:25 51°13.601 2°56.1 109.1 0.1 2 -999
2007-09-25 15:37:25 51°13.602 2°56.1 123.9 -999 253 -999